Airport ID:KSMD
Update Time (UTC):27/10/2021 14:14
Wind Speed (Knots):3
Wind Direction (Magnetic):10
Temperature (°C):6.9
Dew Point (°C):4.7
Humidity (%):86.1
Altimeter (inHg):30.09
Density Altitude (Feet):
Visibility (Miles):9
Clouds (Hundreds of feet):CLR
Present Weather:
METAR:METAR KSMD 271410Z AUTO 03003KT 9SM CLR 07/05 A3008 RMK A01

The data displayed is for advisory purposes only and is not to be used for flight planning or operations.